logo
Rechercher aéroport 
image banner adimage banner adimage banner ad
image banner ad

ETOU - Wiesbaden Aaf

Situé à Wiesbaden, Germany

ICAO - ETOU, IATA - WIE

Données fournies par Airmate  

Information générale

Coordonnées: N50°2'59" E8°19'32"
Élévation : 460 feet MSL.
Variation magnétique : 3.24° East
Voir autres Aéroports à Hesse

Données opérationnelles

Special qualification required
Heure actuelle UTC:
Heure actuelle locale:
Météo
METAR: ETOU 131955Z AUTO 00000KT 9999 CLR 17/12 A3017 RMK AO2 SLP219 T01730118
Voir NOTAMs / SUP AIP / TFR affectant cet aéroport [VIEW]
Fréquences de communication: [VIEW]

Pistes:

Identifiant RWYQFULongueur (ft)Largeur (ft)SurfaceLDA (ft)
0773°7069120ASPH7069
25253°7069120ASPH6934

Coordonnées de l'aéroport

Adresse: Wiesbaden Germany

Vue satellite de ETOU